Time;durP1;ratioP1;P1;durP2;ratioP2;P2;SDS_P1;SDS_P2;PMS_P1;PMS_P2;Temp;Humidity;BMP_temperature;BMP_pressure;BME280_temperature;BME280_humidity;BME280_pressure;Samples;Min_cycle;Max_cycle;Signal;HPM_P1;HPM_P2
2022/11/25 00:00:10;;;;;;;6.38;1.23;;;7.90;99.90;;;;;;5057559;28;20119;-41
2022/11/25 00:02:42;;;;;;;6.45;1.67;;;7.90;99.90;;;;;;5061458;28;20075;-39
2022/11/25 00:05:08;;;;;;;7.25;1.27;;;7.90;99.90;;;;;;5052227;28;20501;-40
2022/11/25 00:07:35;;;;;;;8.85;1.33;;;8.00;99.90;;;;;;5060133;28;20037;-40
2022/11/25 00:10:01;;;;;;;6.18;1.17;;;8.00;99.90;;;;;;5060418;28;20079;-40
2022/11/25 00:12:26;;;;;;;7.25;1.48;;;8.00;99.90;;;;;;5057305;28;20146;-39
2022/11/25 00:14:52;;;;;;;13.75;1.40;;;8.00;99.90;;;;;;5061938;28;20364;-40
2022/11/25 00:17:18;;;;;;;10.88;1.23;;;8.00;99.90;;;;;;5055418;28;20040;-44
2022/11/25 00:19:43;;;;;;;6.18;1.42;;;8.00;99.90;;;;;;5051963;28;20502;-38
2022/11/25 00:22:09;;;;;;;8.38;1.48;;;8.00;99.90;;;;;;5061716;28;20036;-40
2022/11/25 00:24:34;;;;;;;5.88;1.10;;;8.00;99.90;;;;;;5056526;28;20040;-39
2022/11/25 00:27:03;;;;;;;12.20;1.63;;;8.00;99.90;;;;;;5057665;28;20037;-40
2022/11/25 00:29:29;;;;;;;9.80;2.05;;;8.00;99.90;;;;;;5057856;28;20072;-40
2022/11/25 00:31:55;;;;;;;6.45;1.80;;;8.00;99.90;;;;;;5059640;28;20183;-39
2022/11/25 00:34:21;;;;;;;8.15;2.00;;;8.00;99.90;;;;;;5062054;28;20070;-41
2022/11/25 00:36:46;;;;;;;6.30;1.60;;;8.00;99.90;;;;;;5060341;28;20040;-40
2022/11/25 00:39:15;;;;;;;10.25;1.80;;;8.00;99.90;;;;;;5055890;28;20068;-38
2022/11/25 00:44:35;;;;;;;11.43;1.58;;;8.00;99.90;;;;;;5053603;28;20045;-40
2022/11/25 00:47:12;;;;;;;8.00;1.48;;;8.00;99.90;;;;;;5057018;28;20041;-39
2022/11/25 00:49:39;;;;;;;8.57;1.08;;;8.00;99.90;;;;;;5061365;28;20029;-40
2022/11/25 00:52:06;;;;;;;7.22;1.83;;;8.00;99.90;;;;;;5059615;28;20494;-39
2022/11/25 00:54:32;;;;;;;7.95;1.63;;;7.90;99.90;;;;;;5064876;28;20094;-39
2022/11/25 00:56:58;;;;;;;8.80;1.35;;;8.00;99.90;;;;;;5059953;28;20045;-40
2022/11/25 00:59:24;;;;;;;5.88;1.27;;;8.00;99.90;;;;;;5055030;28;20032;-39
2022/11/25 01:01:50;;;;;;;11.23;1.70;;;8.00;99.90;;;;;;5072762;28;20517;-39
2022/11/25 01:04:16;;;;;;;10.25;1.67;;;8.00;99.90;;;;;;5059554;28;20044;-40
2022/11/25 01:06:42;;;;;;;7.60;1.67;;;8.00;99.90;;;;;;5060055;28;20577;-39
2022/11/25 01:09:10;;;;;;;9.95;1.75;;;8.00;99.90;;;;;;5056867;28;20121;-40
2022/11/25 01:11:36;;;;;;;12.43;3.05;;;8.00;99.90;;;;;;5056203;28;20095;-40
2022/11/25 01:14:02;;;;;;;12.65;2.08;;;8.00;99.90;;;;;;5060620;28;20044;-39
2022/11/25 01:16:28;;;;;;;9.13;1.48;;;8.00;99.90;;;;;;5057588;28;20440;-39
2022/11/25 01:18:54;;;;;;;13.20;1.65;;;8.00;99.90;;;;;;5059225;28;20059;-40
2022/11/25 01:21:25;;;;;;;11.43;1.48;;;8.00;99.90;;;;;;5058768;28;20033;-39
2022/11/25 01:23:51;;;;;;;9.35;1.95;;;8.00;99.90;;;;;;5058556;28;20465;-39
2022/11/25 01:26:22;;;;;;;6.15;1.27;;;8.00;99.90;;;;;;5068995;28;20024;-41
2022/11/25 01:28:52;;;;;;;13.55;1.70;;;7.90;99.90;;;;;;5063258;28;20033;-40
2022/11/25 01:31:19;;;;;;;9.05;1.30;;;7.90;99.90;;;;;;5064177;28;20044;-39
2022/11/25 01:33:46;;;;;;;8.30;1.63;;;7.90;99.90;;;;;;5068702;28;20194;-40
2022/11/25 01:36:15;;;;;;;11.15;1.90;;;7.90;99.90;;;;;;5061176;28;20502;-39
2022/11/25 01:38:41;;;;;;;10.60;1.05;;;7.80;99.90;;;;;;5059567;28;20576;-39
2022/11/25 01:41:10;;;;;;;9.65;1.58;;;7.80;99.90;;;;;;5064470;28;20044;-38
2022/11/25 01:43:36;;;;;;;8.90;1.40;;;7.80;99.90;;;;;;5066709;28;20170;-38
2022/11/25 01:46:56;;;;;;;7.97;1.75;;;7.80;99.90;;;;;;5059613;28;20510;-41
2022/11/25 01:49:33;;;;;;;10.70;1.70;;;7.80;99.90;;;;;;5018606;28;20052;-38
2022/11/25 01:52:22;;;;;;;9.63;1.63;;;7.80;99.90;;;;;;5061817;28;20082;-40
2022/11/25 01:54:59;;;;;;;6.82;1.15;;;7.80;99.90;;;;;;5058287;28;20052;-39
2022/11/25 01:57:31;;;;;;;9.95;1.67;;;7.80;99.90;;;;;;5065268;28;20075;-39
2022/11/25 02:00:00;;;;;;;6.18;1.27;;;7.80;99.90;;;;;;5066281;28;20107;-39
2022/11/25 02:02:27;;;;;;;8.02;1.33;;;7.80;99.90;;;;;;5058876;28;20532;-39
2022/11/25 02:04:53;;;;;;;10.10;1.77;;;7.80;99.90;;;;;;5066072;28;20068;-40
2022/11/25 02:07:43;;;;;;;11.77;2.00;;;7.80;99.90;;;;;;5061772;28;20095;-39
2022/11/25 02:10:13;;;;;;;7.30;1.38;;;7.80;99.90;;;;;;5062904;28;20040;-39
2022/11/25 02:12:42;;;;;;;9.57;2.38;;;7.80;99.90;;;;;;5068091;28;20040;-40
2022/11/25 02:15:08;;;;;;;9.18;1.63;;;7.80;99.90;;;;;;5066921;28;20059;-39
2022/11/25 02:17:33;;;;;;;6.88;1.30;;;7.80;99.90;;;;;;5062673;28;20045;-38
2022/11/25 02:20:07;;;;;;;10.00;1.50;;;7.80;99.90;;;;;;5067012;28;20037;-39
2022/11/25 02:22:57;;;;;;;10.57;1.85;;;7.80;99.90;;;;;;5066114;28;20039;-41
2022/11/25 02:25:38;;;;;;;5.97;1.50;;;7.80;99.90;;;;;;5061588;28;20190;-40
2022/11/25 02:28:09;;;;;;;6.93;1.23;;;7.80;99.90;;;;;;5067858;28;20849;-39
2022/11/25 02:30:35;;;;;;;7.05;1.40;;;7.80;99.90;;;;;;5063688;28;20049;-40
2022/11/25 02:33:01;;;;;;;8.23;1.40;;;7.80;99.90;;;;;;5065931;28;20127;-39
2022/11/25 02:35:54;;;;;;;13.35;1.70;;;7.80;99.90;;;;;;5066671;28;20174;-39
2022/11/25 02:38:20;;;;;;;8.30;1.52;;;7.80;99.90;;;;;;5048869;28;20121;-38
2022/11/25 02:40:57;;;;;;;10.02;1.67;;;7.80;99.90;;;;;;5063512;28;20041;-39
2022/11/25 02:43:23;;;;;;;13.32;1.65;;;7.80;99.90;;;;;;5067383;28;20052;-39
2022/11/25 02:46:07;;;;;;;12.77;1.90;;;7.80;99.90;;;;;;5063148;28;20097;-39
2022/11/25 02:48:36;;;;;;;10.52;1.83;;;7.80;99.90;;;;;;5060613;28;20044;-40
2022/11/25 02:51:02;;;;;;;8.48;1.48;;;7.80;99.90;;;;;;5064189;28;20041;-39
2022/11/25 02:53:28;;;;;;;8.15;1.27;;;7.90;99.90;;;;;;5065864;28;20036;-40
2022/11/25 02:55:54;;;;;;;8.80;1.45;;;7.80;99.90;;;;;;5070413;28;20494;-40
2022/11/25 02:58:20;;;;;;;9.75;1.95;;;7.90;99.90;;;;;;5063032;28;20134;-41
2022/11/25 03:00:46;;;;;;;6.72;1.60;;;7.90;99.90;;;;;;5065745;28;20040;-39
2022/11/25 03:03:13;;;;;;;7.38;1.77;;;7.90;99.90;;;;;;5062829;28;20086;-40
2022/11/25 03:05:39;;;;;;;11.05;1.55;;;7.80;99.90;;;;;;5062270;28;20078;-39
2022/11/25 03:08:05;;;;;;;12.10;1.90;;;7.90;99.90;;;;;;5067321;28;20028;-38
2022/11/25 03:10:31;;;;;;;10.90;2.03;;;7.90;99.90;;;;;;5061881;28;20482;-39
2022/11/25 03:12:57;;;;;;;9.65;1.45;;;7.90;99.90;;;;;;5062716;28;20090;-40
2022/11/25 03:15:23;;;;;;;10.27;2.13;;;7.90;99.90;;;;;;5063257;28;20537;-39
2022/11/25 03:17:49;;;;;;;11.00;1.73;;;7.90;99.90;;;;;;5055918;28;20043;-39
2022/11/25 03:20:15;;;;;;;9.20;1.83;;;7.90;99.90;;;;;;5059469;28;20036;-40
2022/11/25 03:22:42;;;;;;;7.03;1.35;;;7.90;99.90;;;;;;5062998;28;20037;-40
2022/11/25 03:25:09;;;;;;;7.95;1.60;;;7.90;99.90;;;;;;5053179;28;20164;-45
2022/11/25 03:27:36;;;;;;;7.78;1.23;;;7.90;99.90;;;;;;5060218;28;20036;-38
2022/11/25 03:30:03;;;;;;;11.52;1.70;;;7.90;99.90;;;;;;5063178;28;20482;-39
2022/11/25 03:32:29;;;;;;;7.95;1.88;;;7.90;99.90;;;;;;5067544;28;20040;-39
2022/11/25 03:34:54;;;;;;;9.77;1.70;;;7.90;99.90;;;;;;5062259;28;20678;-39
2022/11/25 03:37:20;;;;;;;12.65;1.80;;;7.90;99.90;;;;;;5060362;28;20094;-39
2022/11/25 03:39:46;;;;;;;8.07;1.40;;;8.00;99.90;;;;;;5063607;28;20041;-40
2022/11/25 03:42:11;;;;;;;9.35;1.92;;;7.90;99.90;;;;;;5061605;28;20036;-39
2022/11/25 03:44:37;;;;;;;10.40;1.92;;;8.00;99.90;;;;;;5064346;28;20051;-40
2022/11/25 03:47:03;;;;;;;9.32;2.35;;;8.00;99.90;;;;;;5057975;28;20035;-39
2022/11/25 03:49:28;;;;;;;11.13;1.48;;;7.90;99.90;;;;;;5066881;28;20123;-39
2022/11/25 03:51:54;;;;;;;10.45;1.80;;;8.00;99.90;;;;;;5058615;28;20051;-39
2022/11/25 03:54:20;;;;;;;10.65;1.60;;;8.00;99.90;;;;;;5063967;28;20486;-41
2022/11/25 03:56:45;;;;;;;6.13;1.48;;;7.90;99.90;;;;;;5066250;28;20091;-39
2022/11/25 03:59:11;;;;;;;8.02;1.80;;;8.00;99.90;;;;;;5077795;28;20032;-39
2022/11/25 04:01:37;;;;;;;10.38;2.10;;;7.90;99.90;;;;;;5061954;28;20043;-42
2022/11/25 04:04:03;;;;;;;6.57;1.95;;;7.90;99.90;;;;;;5064987;28;20044;-38
2022/11/25 04:06:28;;;;;;;10.88;1.63;;;7.90;99.90;;;;;;5065803;28;20633;-39
2022/11/25 04:08:54;;;;;;;9.77;1.90;;;7.90;99.90;;;;;;5064475;28;20029;-40
2022/11/25 04:11:20;;;;;;;8.48;1.85;;;7.90;99.90;;;;;;5070769;28;20040;-42
2022/11/25 04:13:46;;;;;;;10.52;2.00;;;7.90;99.90;;;;;;5061449;28;20045;-39
2022/11/25 04:16:30;;;;;;;7.78;1.67;;;7.90;99.90;;;;;;5062676;28;20040;-39
2022/11/25 04:18:55;;;;;;;6.25;1.70;;;7.90;99.90;;;;;;5055149;28;20493;-39
2022/11/25 04:21:21;;;;;;;9.77;2.53;;;7.90;99.90;;;;;;5063146;28;20047;-42
2022/11/25 04:23:46;;;;;;;11.38;1.80;;;7.90;99.90;;;;;;5063114;28;20039;-38
2022/11/25 04:26:12;;;;;;;12.30;2.00;;;7.90;99.90;;;;;;5060803;28;20097;-39
2022/11/25 04:28:38;;;;;;;12.05;2.50;;;7.90;99.90;;;;;;5055501;28;20048;-38
2022/11/25 04:31:07;;;;;;;9.38;2.17;;;7.90;99.90;;;;;;5054186;28;20111;-43
2022/11/25 04:33:33;;;;;;;12.35;1.90;;;7.90;99.90;;;;;;5060078;28;20052;-47
2022/11/25 04:35:58;;;;;;;10.73;2.22;;;7.90;99.90;;;;;;5059438;28;20517;-38
2022/11/25 04:38:24;;;;;;;9.27;2.00;;;7.90;99.90;;;;;;5062949;28;20036;-38
2022/11/25 04:40:50;;;;;;;9.80;2.10;;;7.90;99.90;;;;;;5063599;28;20036;-38
2022/11/25 04:43:15;;;;;;;8.43;1.88;;;7.90;99.90;;;;;;5059559;28;20051;-37
2022/11/25 04:45:41;;;;;;;12.52;2.10;;;7.90;99.90;;;;;;5058961;28;20494;-38
2022/11/25 04:48:07;;;;;;;6.80;1.60;;;7.90;99.90;;;;;;5063995;28;20039;-40
2022/11/25 04:50:32;;;;;;;10.40;2.03;;;7.90;99.90;;;;;;5067291;28;20035;-38
2022/11/25 04:52:58;;;;;;;9.07;1.80;;;7.90;99.90;;;;;;5059837;28;20144;-43
2022/11/25 04:55:24;;;;;;;18.02;2.55;;;7.90;99.90;;;;;;5060767;28;20038;-39
2022/11/25 04:57:49;;;;;;;10.35;2.08;;;8.00;99.90;;;;;;5061020;28;20132;-39
2022/11/25 05:00:16;;;;;;;14.57;2.25;;;8.00;99.90;;;;;;5059484;28;20036;-39
2022/11/25 05:02:41;;;;;;;11.38;2.00;;;8.00;99.90;;;;;;5061460;28;20044;-39
2022/11/25 05:05:08;;;;;;;8.02;2.22;;;8.00;99.90;;;;;;5059235;28;20033;-40
2022/11/25 05:07:33;;;;;;;9.13;2.47;;;8.00;99.90;;;;;;5066548;28;20453;-40
2022/11/25 05:09:59;;;;;;;13.45;2.35;;;8.00;99.90;;;;;;5055454;28;20119;-39
2022/11/25 05:12:27;;;;;;;9.68;2.05;;;8.00;99.90;;;;;;5063694;28;20041;-48
2022/11/25 05:14:53;;;;;;;10.40;2.35;;;8.00;99.90;;;;;;5063028;28;20564;-39
2022/11/25 05:17:21;;;;;;;10.15;2.08;;;8.00;99.90;;;;;;5059237;28;20156;-40
2022/11/25 05:19:48;;;;;;;10.48;2.08;;;8.00;99.90;;;;;;5057377;28;20099;-38
2022/11/25 05:22:16;;;;;;;10.25;2.10;;;8.00;99.90;;;;;;5061963;28;20489;-39
2022/11/25 05:24:42;;;;;;;13.45;2.38;;;8.00;99.90;;;;;;5060193;28;20040;-39
2022/11/25 05:27:09;;;;;;;8.15;2.72;;;8.00;99.90;;;;;;5058617;28;20153;-39
2022/11/25 05:29:35;;;;;;;8.85;2.92;;;8.00;99.90;;;;;;5062012;28;20033;-40
2022/11/25 05:32:00;;;;;;;11.18;3.80;;;8.00;99.90;;;;;;5064529;28;20090;-40
2022/11/25 05:34:26;;;;;;;10.05;2.40;;;8.00;99.90;;;;;;5059440;28;20118;-39
2022/11/25 05:36:52;;;;;;;12.15;2.60;;;8.10;99.90;;;;;;5064326;28;20107;-39
2022/11/25 05:39:18;;;;;;;14.68;2.58;;;8.10;99.90;;;;;;5060466;28;20060;-39
2022/11/25 05:41:44;;;;;;;9.38;3.17;;;8.10;99.90;;;;;;5056943;28;20120;-39
2022/11/25 05:44:09;;;;;;;10.77;2.33;;;8.10;99.90;;;;;;5060378;28;20144;-38
2022/11/25 05:46:35;;;;;;;9.15;2.40;;;8.10;99.90;;;;;;5063303;28;20036;-41
2022/11/25 05:49:01;;;;;;;8.25;3.03;;;8.10;99.90;;;;;;5059801;28;20043;-40
2022/11/25 05:51:27;;;;;;;11.57;2.17;;;8.10;99.90;;;;;;5057534;28;20089;-38
2022/11/25 05:53:53;;;;;;;8.82;1.90;;;8.10;99.90;;;;;;5066406;28;20044;-40
2022/11/25 05:56:19;;;;;;;8.73;2.28;;;8.10;99.90;;;;;;5060920;28;20036;-39
2022/11/25 05:58:45;;;;;;;7.30;2.38;;;8.10;99.90;;;;;;5052267;28;20045;-39
2022/11/25 06:01:12;;;;;;;7.93;1.80;;;8.10;99.90;;;;;;5063124;28;21247;-39
2022/11/25 06:03:39;;;;;;;14.48;2.33;;;8.10;99.90;;;;;;5060780;28;20040;-39
2022/11/25 06:06:06;;;;;;;9.88;2.30;;;8.10;99.90;;;;;;5057886;28;20047;-39
2022/11/25 06:08:33;;;;;;;15.35;1.88;;;8.00;99.90;;;;;;5056931;28;20525;-39
2022/11/25 06:10:58;;;;;;;7.20;2.08;;;8.00;99.90;;;;;;5059421;28;20059;-41
2022/11/25 06:13:24;;;;;;;14.95;2.15;;;8.00;99.90;;;;;;5056689;28;20138;-41
2022/11/25 06:15:50;;;;;;;9.60;2.67;;;7.90;99.90;;;;;;5059863;28;20502;-39
2022/11/25 06:18:17;;;;;;;7.60;1.52;;;7.90;99.90;;;;;;5065405;28;20062;-39
2022/11/25 06:20:44;;;;;;;10.15;1.98;;;7.80;99.90;;;;;;5063875;28;20537;-39
2022/11/25 06:23:09;;;;;;;10.13;2.13;;;7.80;99.90;;;;;;5061557;28;20102;-40
2022/11/25 06:25:35;;;;;;;10.38;2.22;;;7.70;99.90;;;;;;5062491;28;20040;-39
2022/11/25 06:28:02;;;;;;;7.93;1.85;;;7.70;99.90;;;;;;5060198;28;20032;-40
2022/11/25 06:30:28;;;;;;;8.52;1.73;;;7.70;99.90;;;;;;5066885;28;20033;-39
2022/11/25 06:32:54;;;;;;;10.40;2.05;;;7.60;99.90;;;;;;5058918;28;20111;-39
2022/11/25 06:35:20;;;;;;;10.40;1.77;;;7.50;99.90;;;;;;5060638;28;20201;-39
2022/11/25 06:37:46;;;;;;;8.98;1.50;;;7.50;99.90;;;;;;5064621;28;20044;-39
2022/11/25 06:40:13;;;;;;;11.15;2.13;;;7.50;99.90;;;;;;5066676;28;20071;-39
2022/11/25 06:42:39;;;;;;;7.95;2.03;;;7.40;99.90;;;;;;5051012;28;20520;-39
2022/11/25 06:45:05;;;;;;;14.00;3.03;;;7.40;99.90;;;;;;5050844;28;20419;-39
2022/11/25 06:47:31;;;;;;;11.70;2.15;;;7.30;99.90;;;;;;5056255;28;20119;-39
2022/11/25 06:49:57;;;;;;;7.35;2.20;;;7.30;99.90;;;;;;5053948;28;20077;-40
2022/11/25 06:52:23;;;;;;;13.55;1.95;;;7.20;99.90;;;;;;5062201;28;20608;-39
2022/11/25 06:54:50;;;;;;;6.10;1.40;;;7.20;99.90;;;;;;5063796;28;20507;-38
2022/11/25 06:57:17;;;;;;;12.45;2.03;;;7.20;99.90;;;;;;5061204;28;20494;-39
2022/11/25 06:59:44;;;;;;;6.90;2.00;;;7.10;99.90;;;;;;5059439;28;20056;-39
2022/11/25 07:02:13;;;;;;;8.18;2.10;;;7.10;99.90;;;;;;5061960;28;20047;-40
2022/11/25 07:04:39;;;;;;;10.20;1.85;;;7.10;99.90;;;;;;5053792;28;20437;-38
2022/11/25 07:07:06;;;;;;;10.73;1.80;;;7.00;99.90;;;;;;5058018;28;20434;-43
2022/11/25 07:09:31;;;;;;;8.70;1.60;;;7.00;99.90;;;;;;5052989;28;20036;-40
2022/11/25 07:11:57;;;;;;;8.35;1.95;;;7.00;99.90;;;;;;5057825;28;20048;-43
2022/11/25 07:14:23;;;;;;;7.40;2.17;;;7.00;99.90;;;;;;5055366;28;20098;-41
2022/11/25 07:16:48;;;;;;;8.10;1.70;;;7.00;99.90;;;;;;5059698;28;20064;-39
2022/11/25 07:19:16;;;;;;;7.78;1.58;;;7.00;99.90;;;;;;5060812;28;20486;-44
2022/11/25 07:21:44;;;;;;;8.27;1.58;;;7.00;99.90;;;;;;5062963;28;20485;-47
2022/11/25 07:24:12;;;;;;;10.15;1.48;;;6.90;99.90;;;;;;5060441;28;20040;-44
2022/11/25 07:26:39;;;;;;;7.35;2.47;;;6.90;99.90;;;;;;5060146;28;20494;-45
2022/11/25 07:29:09;;;;;;;3.67;1.30;;;6.90;99.90;;;;;;5062154;28;20032;-45
2022/11/25 07:31:38;;;;;;;5.40;1.42;;;6.90;99.90;;;;;;5061021;28;20091;-42
2022/11/25 07:34:08;;;;;;;8.80;1.92;;;6.90;99.90;;;;;;5060035;28;20452;-45
2022/11/25 07:36:35;;;;;;;7.93;1.60;;;6.90;99.90;;;;;;5056481;28;20060;-42
2022/11/25 07:39:07;;;;;;;11.35;1.70;;;6.80;99.90;;;;;;5063444;28;20055;-47
2022/11/25 07:41:33;;;;;;;7.67;1.87;;;6.80;99.90;;;;;;5058416;28;20029;-43
2022/11/25 07:44:02;;;;;;;5.97;1.50;;;6.80;99.90;;;;;;5053992;28;20044;-45
2022/11/25 07:46:28;;;;;;;7.65;1.40;;;6.80;99.90;;;;;;5046244;28;20690;-44
2022/11/25 07:48:59;;;;;;;10.68;1.83;;;6.80;99.90;;;;;;5060191;28;20114;-42
2022/11/25 07:51:31;;;;;;;7.45;1.60;;;6.80;99.90;;;;;;5061208;28;20036;-43
2022/11/25 07:53:59;;;;;;;9.15;1.80;;;6.80;99.90;;;;;;5053843;28;21634;-43
2022/11/25 07:56:26;;;;;;;5.22;1.48;;;6.90;99.90;;;;;;5059459;28;20097;-44
2022/11/25 07:58:52;;;;;;;9.00;1.60;;;6.90;99.90;;;;;;5056977;28;20548;-40
2022/11/25 08:01:18;;;;;;;7.97;1.70;;;7.00;99.90;;;;;;5054126;28;20139;-47
2022/11/25 08:03:46;;;;;;;4.20;1.42;;;7.00;99.90;;;;;;5059890;28;20041;-46
2022/11/25 08:06:15;;;;;;;7.20;1.67;;;7.00;99.90;;;;;;5052831;28;20036;-42
2022/11/25 08:08:42;;;;;;;6.53;2.40;;;7.00;99.90;;;;;;5057593;28;20452;-49
2022/11/25 08:11:12;;;;;;;7.97;2.05;;;7.10;99.90;;;;;;5058639;28;20086;-47
2022/11/25 08:13:38;;;;;;;5.78;1.95;;;7.10;99.90;;;;;;5052380;28;20032;-45
2022/11/25 08:16:05;;;;;;;10.65;1.85;;;7.10;99.90;;;;;;5059470;28;20489;-45
2022/11/25 08:18:31;;;;;;;7.15;1.42;;;7.10;99.90;;;;;;5053773;28;20103;-39
2022/11/25 08:21:03;;;;;;;5.75;1.35;;;7.10;99.90;;;;;;5061305;28;20075;-39
2022/11/25 08:23:29;;;;;;;7.07;1.60;;;7.10;99.90;;;;;;5058252;28;20051;-38
2022/11/25 08:25:55;;;;;;;4.57;1.50;;;7.10;99.90;;;;;;5043692;28;20117;-38
2022/11/25 08:28:21;;;;;;;7.88;1.60;;;7.10;99.90;;;;;;5051202;28;20085;-37
2022/11/25 08:30:47;;;;;;;9.63;1.67;;;7.10;99.90;;;;;;5056068;28;20041;-38
2022/11/25 08:33:12;;;;;;;5.57;1.50;;;7.10;99.90;;;;;;5051732;28;20060;-42
2022/11/25 08:35:38;;;;;;;8.77;1.70;;;7.10;99.90;;;;;;5053650;28;20041;-42
2022/11/25 08:38:05;;;;;;;7.18;1.73;;;7.10;99.90;;;;;;5050003;28;20037;-41
2022/11/25 08:40:33;;;;;;;5.50;1.80;;;7.10;99.90;;;;;;5057527;28;20052;-41
2022/11/25 08:42:59;;;;;;;5.70;1.67;;;7.20;99.90;;;;;;5063302;28;20072;-38
2022/11/25 08:45:25;;;;;;;11.18;1.98;;;7.20;99.90;;;;;;5057833;28;20109;-38
2022/11/25 08:47:50;;;;;;;7.75;2.22;;;7.20;99.90;;;;;;5056235;28;20048;-39
2022/11/25 08:50:16;;;;;;;7.85;2.20;;;7.30;99.90;;;;;;5052489;28;20043;-39
2022/11/25 08:52:42;;;;;;;6.97;1.75;;;7.30;99.90;;;;;;5053103;28;20137;-38
2022/11/25 08:55:08;;;;;;;6.93;1.90;;;7.30;99.90;;;;;;5047977;28;20067;-38
2022/11/25 08:57:34;;;;;;;9.05;2.33;;;7.40;99.90;;;;;;5053173;28;20033;-37
2022/11/25 09:00:00;;;;;;;9.20;2.75;;;7.50;99.90;;;;;;5064580;28;20042;-38
2022/11/25 09:02:26;;;;;;;6.78;2.22;;;7.60;99.90;;;;;;5063070;28;20064;-38
2022/11/25 09:04:51;;;;;;;9.50;2.75;;;7.60;99.90;;;;;;5055212;28;20123;-38
2022/11/25 09:07:17;;;;;;;7.13;2.33;;;7.70;99.90;;;;;;5053803;28;20179;-44
2022/11/25 09:09:43;;;;;;;6.63;1.95;;;7.70;99.90;;;;;;5054607;28;20045;-38
2022/11/25 09:12:09;;;;;;;6.40;2.35;;;7.80;99.90;;;;;;5058430;28;20037;-43
2022/11/25 09:14:34;;;;;;;14.88;2.83;;;7.80;99.90;;;;;;5057093;28;20401;-43
2022/11/25 09:17:00;;;;;;;9.52;2.83;;;7.90;99.90;;;;;;5052948;28;20040;-44
2022/11/25 09:19:27;;;;;;;5.72;1.95;;;7.90;99.90;;;;;;5054201;28;20033;-42
2022/11/25 09:21:53;;;;;;;6.35;2.17;;;8.00;99.90;;;;;;5052736;28;20512;-41
2022/11/25 09:24:19;;;;;;;8.75;2.47;;;8.10;99.90;;;;;;5050994;28;20052;-46
2022/11/25 09:26:45;;;;;;;6.20;2.20;;;8.20;99.90;;;;;;5055536;28;20040;-39
2022/11/25 09:29:12;;;;;;;7.07;2.38;;;8.20;99.90;;;;;;5057915;28;20052;-43
2022/11/25 09:31:38;;;;;;;5.53;1.63;;;8.30;99.90;;;;;;5057934;28;20036;-44
2022/11/25 09:34:04;;;;;;;7.63;1.90;;;8.40;99.90;;;;;;5054342;28;20210;-56
2022/11/25 09:36:30;;;;;;;5.38;1.67;;;8.40;99.90;;;;;;5059034;28;20583;-44
2022/11/25 09:38:55;;;;;;;5.93;1.52;;;8.50;99.90;;;;;;5052041;28;20098;-45
2022/11/25 09:47:38;;;;;;;6.13;1.38;;;8.70;99.90;;;;;;5067388;28;20115;-43
2022/11/25 09:50:51;;;;;;;3.90;1.23;;;8.80;99.90;;;;;;5060774;28;20033;-40
2022/11/25 09:53:38;;;;;;;7.63;1.45;;;8.90;99.90;;;;;;5059130;28;20111;-42
2022/11/25 09:56:11;;;;;;;6.90;1.88;;;8.90;99.90;;;;;;5064334;28;20036;-42
2022/11/25 09:58:46;;;;;;;4.95;1.88;;;9.00;99.90;;;;;;5064420;28;20495;-38
2022/11/25 10:01:18;;;;;;;8.40;1.40;;;9.00;99.90;;;;;;5058810;28;20111;-39
2022/11/25 10:03:48;;;;;;;6.95;1.60;;;9.00;99.90;;;;;;5056649;28;20564;-37
2022/11/25 10:06:22;;;;;;;6.47;1.38;;;9.10;99.90;;;;;;5062780;28;20047;-38
2022/11/25 10:08:51;;;;;;;4.63;1.25;;;9.10;99.90;;;;;;5060293;28;20522;-37
2022/11/25 10:11:19;;;;;;;6.40;1.85;;;9.20;99.90;;;;;;5067847;28;20040;-37
2022/11/25 10:13:55;;;;;;;4.80;1.48;;;9.20;99.90;;;;;;5059769;28;20895;-38
2022/11/25 10:16:23;;;;;;;9.35;1.80;;;9.20;99.90;;;;;;5058380;28;20733;-39
2022/11/25 10:19:01;;;;;;;9.45;2.83;;;9.30;99.90;;;;;;5057244;28;20037;-39
2022/11/25 10:21:27;;;;;;;4.72;1.42;;;9.30;99.90;;;;;;5052820;28;20032;-40
2022/11/25 10:23:53;;;;;;;8.60;1.85;;;9.30;99.90;;;;;;5056976;28;20043;-40
2022/11/25 10:26:24;;;;;;;11.25;1.85;;;9.40;99.90;;;;;;5052205;28;20041;-39
2022/11/25 10:29:25;;;;;;;3.78;1.50;;;9.50;99.90;;;;;;5053024;28;20158;-41
2022/11/25 10:32:04;;;;;;;6.40;1.42;;;9.50;99.90;;;;;;5044340;28;21790;-42
2022/11/25 10:34:47;;;;;;;4.15;1.10;;;9.60;99.90;;;;;;5062009;28;20463;-43
2022/11/25 10:37:30;;;;;;;3.88;1.02;;;9.70;99.90;;;;;;5055474;28;20047;-42
2022/11/25 10:39:56;;;;;;;5.53;1.45;;;9.80;99.90;;;;;;5065014;28;20060;-42
2022/11/25 10:42:25;;;;;;;9.13;1.92;;;10.00;99.90;;;;;;5060689;28;20045;-42
2022/11/25 10:44:53;;;;;;;5.55;1.73;;;10.20;99.90;;;;;;5061064;28;20044;-39
2022/11/25 10:47:32;;;;;;;3.53;1.20;;;10.60;99.90;;;;;;5054987;28;20125;-39
2022/11/25 10:50:13;;;;;;;4.35;1.30;;;10.90;99.90;;;;;;5060214;28;20076;-39
2022/11/25 10:52:58;;;;;;;7.43;1.20;;;11.10;99.90;;;;;;5052869;28;20032;-41
2022/11/25 10:55:30;;;;;;;8.57;1.40;;;11.40;99.90;;;;;;5057144;28;20520;-39
2022/11/25 10:57:56;;;;;;;5.88;1.50;;;11.50;99.90;;;;;;5058126;28;20041;-39
2022/11/25 11:00:35;;;;;;;8.95;2.35;;;11.60;99.90;;;;;;5057750;28;20506;-39
2022/11/25 11:03:14;;;;;;;7.32;1.45;;;11.70;99.90;;;;;;5067367;28;20571;-40
2022/11/25 11:05:49;;;;;;;4.53;1.30;;;11.80;99.90;;;;;;5058483;28;20037;-39
2022/11/25 11:08:27;;;;;;;4.38;1.25;;;11.90;99.90;;;;;;5059602;28;20032;-39
2022/11/25 11:11:11;;;;;;;3.97;0.98;;;12.00;99.90;;;;;;5059336;28;20133;-39
2022/11/25 11:13:38;;;;;;;9.00;1.67;;;12.20;99.90;;;;;;5058412;28;20065;-44
2022/11/25 11:16:19;;;;;;;4.90;1.17;;;12.40;99.90;;;;;;5058914;28;20040;-47
2022/11/25 11:18:45;;;;;;;3.75;1.10;;;12.70;99.90;;;;;;5057582;28;20159;-41
2022/11/25 11:21:24;;;;;;;7.40;1.98;;;12.90;99.90;;;;;;5056483;28;20126;-43
2022/11/25 11:23:52;;;;;;;8.30;1.23;;;13.00;99.90;;;;;;5075223;28;20775;-41
2022/11/25 11:26:28;;;;;;;9.27;1.85;;;13.00;99.90;;;;;;5074226;28;20036;-47
2022/11/25 11:29:02;;;;;;;4.22;1.50;;;13.10;99.90;;;;;;5059535;28;20486;-43
2022/11/25 11:31:42;;;;;;;6.13;1.40;;;13.20;99.90;;;;;;5080107;28;20494;-42
2022/11/25 11:34:41;;;;;;;5.20;1.35;;;13.40;99.90;;;;;;5054571;28;20048;-44
2022/11/25 11:37:31;;;;;;;6.22;1.38;;;13.50;99.90;;;;;;5056907;28;20133;-45
2022/11/25 11:40:30;;;;;;;6.07;1.35;;;13.50;99.90;;;;;;5054508;28;20092;-41
2022/11/25 11:43:11;;;;;;;6.72;1.30;;;13.70;99.90;;;;;;5056855;28;20045;-43
2022/11/25 11:46:15;;;;;;;8.68;1.30;;;13.80;99.90;;;;;;5060849;28;20498;-42
2022/11/25 11:48:56;;;;;;;8.30;1.00;;;13.80;99.90;;;;;;5058103;28;20058;-42
2022/11/25 11:51:35;;;;;;;6.90;1.25;;;13.80;99.90;;;;;;5057847;28;20530;-42
2022/11/25 11:54:22;;;;;;;5.78;1.70;;;14.00;99.90;;;;;;5060436;28;20097;-49
2022/11/25 11:56:55;;;;;;;10.23;1.60;;;14.20;99.90;;;;;;5057005;28;20055;-43
2022/11/25 11:59:52;;;;;;;5.18;1.60;;;14.30;99.90;;;;;;5051883;28;20453;-48
2022/11/25 12:02:55;;;;;;;7.57;1.20;;;14.30;99.90;;;;;;5059971;28;20485;-54
2022/11/25 12:05:26;;;;;;;7.45;1.40;;;14.40;99.90;;;;;;5058818;28;20044;-42
2022/11/25 12:08:30;;;;;;;8.35;1.17;;;14.40;99.90;;;;;;5057333;28;20040;-43
2022/11/25 12:11:03;;;;;;;6.53;1.40;;;14.50;99.80;;;;;;5020945;28;20150;-41
2022/11/25 12:13:59;;;;;;;4.22;0.88;;;14.60;99.60;;;;;;5055999;28;20041;-43
2022/11/25 12:16:44;;;;;;;5.82;1.42;;;14.30;99.70;;;;;;5053894;28;20036;-42
2022/11/25 12:19:49;;;;;;;9.93;1.67;;;14.00;99.80;;;;;;5052709;28;20494;-41
2022/11/25 12:22:26;;;;;;;4.28;1.08;;;14.30;99.90;;;;;;5043932;28;20474;-42
2022/11/25 12:25:00;;;;;;;6.68;1.25;;;14.60;98.90;;;;;;5057822;28;20473;-43
2022/11/25 12:27:32;;;;;;;5.10;1.48;;;14.70;98.10;;;;;;5049467;28;20033;-43
2022/11/25 12:30:10;;;;;;;6.13;1.23;;;14.70;98.90;;;;;;5053968;28;20581;-43
2022/11/25 12:32:55;;;;;;;6.07;1.40;;;15.00;98.20;;;;;;5054658;28;20382;-42
2022/11/25 12:35:32;;;;;;;6.03;1.15;;;15.40;98.60;;;;;;5056656;28;20047;-43
2022/11/25 12:38:03;;;;;;;6.78;1.27;;;15.60;97.20;;;;;;5056369;28;20044;-43
2022/11/25 12:40:48;;;;;;;6.43;1.17;;;15.60;96.40;;;;;;5055607;28;20079;-41
2022/11/25 12:43:42;;;;;;;4.30;1.00;;;15.50;96.40;;;;;;5054370;28;20562;-40
2022/11/25 12:46:32;;;;;;;6.28;1.15;;;15.60;96.30;;;;;;5052681;28;20053;-46
2022/11/25 12:48:58;;;;;;;6.75;1.52;;;15.60;96.10;;;;;;5056372;28;20056;-41
2022/11/25 12:52:01;;;;;;;10.20;1.45;;;15.40;96.00;;;;;;5057106;28;20483;-53
2022/11/25 12:54:55;;;;;;;4.85;1.15;;;15.60;95.70;;;;;;5058227;28;20045;-44
2022/11/25 12:57:33;;;;;;;5.20;1.00;;;15.50;96.60;;;;;;5048107;28;20135;-58
2022/11/25 13:00:08;;;;;;;7.38;1.13;;;15.60;96.20;;;;;;5051658;28;20090;-43
2022/11/25 13:03:14;;;;;;;10.65;1.27;;;15.60;95.50;;;;;;5061301;28;20508;-45
2022/11/25 13:05:48;;;;;;;7.60;1.35;;;15.60;95.80;;;;;;5058093;28;20072;-46
2022/11/25 13:08:28;;;;;;;7.90;0.80;;;15.80;95.50;;;;;;5056747;28;20394;-46
2022/11/25 13:11:36;;;;;;;8.63;1.20;;;15.50;94.50;;;;;;5058152;28;20037;-45
2022/11/25 13:14:44;;;;;;;6.70;1.13;;;14.70;94.30;;;;;;5052309;28;20119;-41
2022/11/25 13:17:13;;;;;;;6.57;1.60;;;14.00;96.20;;;;;;5055095;28;20512;-41
2022/11/25 13:19:39;;;;;;;7.88;1.00;;;14.00;98.50;;;;;;5052469;28;20029;-47